Topsail Beach, NC

1:10 AM EST on December 05, 2016 (GMT -0500)
Topsail Beach Fire Dept | | Change Station

Elev 12 ft 34.37 °N, 77.63 °W | Updated 1 second ago

Light Rain
Light Rain Mist
62.2 °F
Feels Like 62.2 °F
N
4.0
Wind Variable Wind from SSW
Gusts 13.0 mph

Today
High -- | Low -- °F
--% Chance of Precip.
Yesterday
High -- | Low -- °F
Precip. -- in
Pressure 30.00 in
Visibility 5.0 miles
Clouds Mostly Cloudy 6500 ft
Overcast 8000 ft
Dew Point 61 °F
Humidity 96%
Rainfall 0.05 in
Snow Depth Not available.
7:02 AM 5:00 PM
Waxing Crescent, 29% visible
METAR KILM 050553Z AUTO 00000KT 5SM -RA BR BKN065 OVC080 11/11 A3000 RMK AO2 SLP158 P0004 60014 T01110111 10122 20078 58034
Pressure 30.00 in
Visibility 5.0 miles
Clouds Mostly Cloudy 6500 ft
Overcast 8000 ft
Dew Point 61 °F
Humidity 96%
Rainfall 0.05 in
Snow Depth Not available.
7:02 AM 5:00 PM
Waxing Crescent, 29% visible
METAR KILM 050553Z AUTO 00000KT 5SM -RA BR BKN065 OVC080 11/11 A3000 RMK AO2 SLP158 P0004 60014 T01110111 10122 20078 58034

10-Day Weather Forecast

Almanac

Astronomy

Dec. 05, 2016 Rise Set
Actual Time
Civil Twilight
Nautical Twilight
Astronomical Twilight
Moon
Length of Visible Light
Length of Day
Tomorrow will be .
, % of the Moon is Illuminated

Today's Extremes

State Highs State Lows

Community

WunderPhotos

Upload Photos

1,955,771 photos uploaded!

WunderBlog® & News

Nearby

Air Quality

  Air Quality AQ Index Pollutant
Not available.

Snow Depth

Station Depth Elevation

Earthquake Activity

City Distance Mag. Time & Date
Minimum magnitude displayed is 2.5.

Coastal Water Temperatures

Place Temperature

Stations

Nearby Weather Stations

Station Location Temp. Windchill Dew Point Humidity Wind Precip. Elev Updated Type
                   

Watches & Warnings

There are currently no watches in effect.